sensor_id;sensor_type;location;lat;lon;timestamp;P1;durP1;ratioP1;P2;durP2;ratioP2
13872;SDS011;7006;51.494;11.964;2023-12-20T00:00:11;9.40;;;6.30;;
13872;SDS011;7006;51.494;11.964;2023-12-20T00:02:40;7.87;;;5.70;;
13872;SDS011;7006;51.494;11.964;2023-12-20T00:05:12;8.60;;;6.60;;
13872;SDS011;7006;51.494;11.964;2023-12-20T00:07:40;8.80;;;6.50;;
13872;SDS011;7006;51.494;11.964;2023-12-20T00:10:11;8.77;;;6.37;;
13872;SDS011;7006;51.494;11.964;2023-12-20T00:12:39;9.13;;;6.13;;
13872;SDS011;7006;51.494;11.964;2023-12-20T00:15:08;8.80;;;6.37;;
13872;SDS011;7006;51.494;11.964;2023-12-20T00:17:37;9.53;;;6.40;;
13872;SDS011;7006;51.494;11.964;2023-12-20T00:20:05;9.73;;;6.33;;
13872;SDS011;7006;51.494;11.964;2023-12-20T00:22:36;9.20;;;6.30;;
13872;SDS011;7006;51.494;11.964;2023-12-20T00:25:04;9.27;;;6.47;;
13872;SDS011;7006;51.494;11.964;2023-12-20T00:27:36;8.57;;;6.00;;
13872;SDS011;7006;51.494;11.964;2023-12-20T00:30:04;8.90;;;5.87;;
13872;SDS011;7006;51.494;11.964;2023-12-20T00:32:34;7.83;;;5.90;;
13872;SDS011;7006;51.494;11.964;2023-12-20T00:35:03;8.93;;;5.37;;
13872;SDS011;7006;51.494;11.964;2023-12-20T00:37:31;9.70;;;6.87;;
13872;SDS011;7006;51.494;11.964;2023-12-20T00:40:00;9.13;;;6.03;;
13872;SDS011;7006;51.494;11.964;2023-12-20T00:42:28;10.00;;;6.27;;
13872;SDS011;7006;51.494;11.964;2023-12-20T00:44:59;10.53;;;7.00;;
13872;SDS011;7006;51.494;11.964;2023-12-20T00:47:28;8.83;;;6.40;;
13872;SDS011;7006;51.494;11.964;2023-12-20T00:49:56;6.83;;;4.70;;
13872;SDS011;7006;51.494;11.964;2023-12-20T00:52:25;8.97;;;6.43;;
13872;SDS011;7006;51.494;11.964;2023-12-20T00:54:53;8.53;;;6.17;;
13872;SDS011;7006;51.494;11.964;2023-12-20T00:57:22;9.50;;;6.43;;
13872;SDS011;7006;51.494;11.964;2023-12-20T00:59:50;9.90;;;6.67;;
13872;SDS011;7006;51.494;11.964;2023-12-20T01:02:21;9.53;;;6.50;;
13872;SDS011;7006;51.494;11.964;2023-12-20T01:04:49;8.40;;;5.70;;
13872;SDS011;7006;51.494;11.964;2023-12-20T01:07:18;8.63;;;6.27;;
13872;SDS011;7006;51.494;11.964;2023-12-20T01:09:46;9.20;;;6.23;;
13872;SDS011;7006;51.494;11.964;2023-12-20T01:12:14;9.77;;;6.70;;
13872;SDS011;7006;51.494;11.964;2023-12-20T01:14:43;8.30;;;5.93;;
13872;SDS011;7006;51.494;11.964;2023-12-20T01:17:11;8.43;;;6.03;;
13872;SDS011;7006;51.494;11.964;2023-12-20T01:19:42;8.50;;;5.57;;
13872;SDS011;7006;51.494;11.964;2023-12-20T01:22:11;8.90;;;5.87;;
13872;SDS011;7006;51.494;11.964;2023-12-20T01:24:39;10.40;;;6.10;;
13872;SDS011;7006;51.494;11.964;2023-12-20T01:27:08;9.00;;;6.03;;
13872;SDS011;7006;51.494;11.964;2023-12-20T01:29:36;10.17;;;6.53;;
13872;SDS011;7006;51.494;11.964;2023-12-20T01:32:05;9.80;;;6.47;;
13872;SDS011;7006;51.494;11.964;2023-12-20T01:34:34;9.10;;;5.90;;
13872;SDS011;7006;51.494;11.964;2023-12-20T01:37:05;11.00;;;6.97;;
13872;SDS011;7006;51.494;11.964;2023-12-20T01:39:33;8.87;;;6.37;;
13872;SDS011;7006;51.494;11.964;2023-12-20T01:42:01;10.50;;;6.03;;
13872;SDS011;7006;51.494;11.964;2023-12-20T01:44:30;9.63;;;6.80;;
13872;SDS011;7006;51.494;11.964;2023-12-20T01:46:58;8.33;;;6.23;;
13872;SDS011;7006;51.494;11.964;2023-12-20T01:49:26;9.77;;;6.53;;
13872;SDS011;7006;51.494;11.964;2023-12-20T01:51:57;9.47;;;5.77;;
13872;SDS011;7006;51.494;11.964;2023-12-20T01:54:28;9.10;;;6.03;;
13872;SDS011;7006;51.494;11.964;2023-12-20T01:56:56;8.63;;;6.13;;
13872;SDS011;7006;51.494;11.964;2023-12-20T01:59:25;9.00;;;6.60;;
13872;SDS011;7006;51.494;11.964;2023-12-20T02:01:53;9.40;;;6.77;;
13872;SDS011;7006;51.494;11.964;2023-12-20T02:04:22;9.40;;;6.43;;
13872;SDS011;7006;51.494;11.964;2023-12-20T02:06:50;9.80;;;6.20;;
13872;SDS011;7006;51.494;11.964;2023-12-20T02:09:20;10.60;;;7.27;;
13872;SDS011;7006;51.494;11.964;2023-12-20T02:11:51;8.20;;;6.40;;
13872;SDS011;7006;51.494;11.964;2023-12-20T02:14:19;8.70;;;6.33;;
13872;SDS011;7006;51.494;11.964;2023-12-20T02:16:48;8.90;;;6.07;;
13872;SDS011;7006;51.494;11.964;2023-12-20T02:19:16;9.53;;;6.77;;
13872;SDS011;7006;51.494;11.964;2023-12-20T02:21:48;11.00;;;6.27;;
13872;SDS011;7006;51.494;11.964;2023-12-20T02:24:16;9.90;;;6.80;;
13872;SDS011;7006;51.494;11.964;2023-12-20T02:26:45;11.77;;;7.70;;
13872;SDS011;7006;51.494;11.964;2023-12-20T02:29:14;8.73;;;6.43;;
13872;SDS011;7006;51.494;11.964;2023-12-20T02:31:42;9.87;;;6.13;;
13872;SDS011;7006;51.494;11.964;2023-12-20T02:34:10;9.87;;;6.77;;
13872;SDS011;7006;51.494;11.964;2023-12-20T02:36:38;10.17;;;6.73;;
13872;SDS011;7006;51.494;11.964;2023-12-20T02:39:09;9.43;;;6.37;;
13872;SDS011;7006;51.494;11.964;2023-12-20T02:41:38;8.23;;;5.87;;
13872;SDS011;7006;51.494;11.964;2023-12-20T02:44:06;7.23;;;5.80;;
13872;SDS011;7006;51.494;11.964;2023-12-20T02:46:34;9.63;;;6.60;;
13872;SDS011;7006;51.494;11.964;2023-12-20T02:49:03;9.50;;;6.90;;
13872;SDS011;7006;51.494;11.964;2023-12-20T02:51:31;8.77;;;6.43;;
13872;SDS011;7006;51.494;11.964;2023-12-20T02:53:59;8.87;;;6.50;;
13872;SDS011;7006;51.494;11.964;2023-12-20T02:56:30;8.27;;;5.67;;
13872;SDS011;7006;51.494;11.964;2023-12-20T02:58:58;9.80;;;6.90;;
13872;SDS011;7006;51.494;11.964;2023-12-20T03:01:27;8.07;;;6.13;;
13872;SDS011;7006;51.494;11.964;2023-12-20T03:03:53;9.73;;;7.50;;
13872;SDS011;7006;51.494;11.964;2023-12-20T03:06:21;9.30;;;6.70;;
13872;SDS011;7006;51.494;11.964;2023-12-20T03:08:50;8.90;;;6.00;;
13872;SDS011;7006;51.494;11.964;2023-12-20T03:11:18;8.10;;;5.97;;
13872;SDS011;7006;51.494;11.964;2023-12-20T03:13:49;8.50;;;5.87;;
13872;SDS011;7006;51.494;11.964;2023-12-20T03:16:17;7.90;;;5.80;;
13872;SDS011;7006;51.494;11.964;2023-12-20T03:18:46;6.87;;;5.27;;
13872;SDS011;7006;51.494;11.964;2023-12-20T03:21:14;8.10;;;5.70;;
13872;SDS011;7006;51.494;11.964;2023-12-20T03:23:42;8.70;;;5.97;;
13872;SDS011;7006;51.494;11.964;2023-12-20T03:26:10;8.07;;;5.60;;
13872;SDS011;7006;51.494;11.964;2023-12-20T03:28:39;8.40;;;6.10;;
13872;SDS011;7006;51.494;11.964;2023-12-20T03:31:11;7.70;;;5.43;;
13872;SDS011;7006;51.494;11.964;2023-12-20T03:33:39;7.67;;;5.63;;
13872;SDS011;7006;51.494;11.964;2023-12-20T03:36:08;7.93;;;5.20;;
13872;SDS011;7006;51.494;11.964;2023-12-20T03:38:36;7.57;;;5.40;;
13872;SDS011;7006;51.494;11.964;2023-12-20T03:41:04;10.30;;;5.37;;
13872;SDS011;7006;51.494;11.964;2023-12-20T03:43:33;8.90;;;5.80;;
13872;SDS011;7006;51.494;11.964;2023-12-20T03:46:01;7.93;;;6.17;;
13872;SDS011;7006;51.494;11.964;2023-12-20T03:48:33;7.67;;;6.03;;
13872;SDS011;7006;51.494;11.964;2023-12-20T03:51:01;8.90;;;6.23;;
13872;SDS011;7006;51.494;11.964;2023-12-20T03:53:29;10.23;;;6.60;;
13872;SDS011;7006;51.494;11.964;2023-12-20T03:55:57;9.27;;;6.03;;
13872;SDS011;7006;51.494;11.964;2023-12-20T03:58:26;8.00;;;6.20;;
13872;SDS011;7006;51.494;11.964;2023-12-20T04:00:54;9.27;;;5.73;;
13872;SDS011;7006;51.494;11.964;2023-12-20T04:03:22;8.20;;;5.63;;
13872;SDS011;7006;51.494;11.964;2023-12-20T04:05:53;8.20;;;5.83;;
13872;SDS011;7006;51.494;11.964;2023-12-20T04:08:22;10.53;;;7.33;;
13872;SDS011;7006;51.494;11.964;2023-12-20T04:10:50;11.27;;;6.43;;
13872;SDS011;7006;51.494;11.964;2023-12-20T04:13:18;7.90;;;6.43;;
13872;SDS011;7006;51.494;11.964;2023-12-20T04:15:46;11.00;;;7.57;;
13872;SDS011;7006;51.494;11.964;2023-12-20T04:18:16;10.20;;;6.07;;
13872;SDS011;7006;51.494;11.964;2023-12-20T04:20:44;10.60;;;7.73;;
13872;SDS011;7006;51.494;11.964;2023-12-20T04:23:15;8.40;;;6.17;;
13872;SDS011;7006;51.494;11.964;2023-12-20T04:25:44;8.30;;;5.67;;
13872;SDS011;7006;51.494;11.964;2023-12-20T04:28:12;8.73;;;6.60;;
13872;SDS011;7006;51.494;11.964;2023-12-20T04:30:41;9.43;;;5.80;;
13872;SDS011;7006;51.494;11.964;2023-12-20T04:33:10;10.43;;;5.67;;
13872;SDS011;7006;51.494;11.964;2023-12-20T04:35:38;6.83;;;5.10;;
13872;SDS011;7006;51.494;11.964;2023-12-20T04:38:08;8.50;;;5.80;;
13872;SDS011;7006;51.494;11.964;2023-12-20T04:40:38;8.47;;;5.63;;
13872;SDS011;7006;51.494;11.964;2023-12-20T04:43:07;6.80;;;5.10;;
13872;SDS011;7006;51.494;11.964;2023-12-20T04:45:35;9.20;;;5.87;;
13872;SDS011;7006;51.494;11.964;2023-12-20T04:48:04;6.90;;;5.10;;
13872;SDS011;7006;51.494;11.964;2023-12-20T04:50:33;7.40;;;5.13;;
13872;SDS011;7006;51.494;11.964;2023-12-20T04:53:02;7.17;;;4.80;;
13872;SDS011;7006;51.494;11.964;2023-12-20T04:55:31;7.70;;;5.37;;
13872;SDS011;7006;51.494;11.964;2023-12-20T04:58:02;10.07;;;5.83;;
13872;SDS011;7006;51.494;11.964;2023-12-20T05:00:31;7.30;;;5.00;;
13872;SDS011;7006;51.494;11.964;2023-12-20T05:02:59;9.13;;;6.13;;
13872;SDS011;7006;51.494;11.964;2023-12-20T05:05:27;8.20;;;5.73;;
13872;SDS011;7006;51.494;11.964;2023-12-20T05:07:55;9.57;;;5.83;;
13872;SDS011;7006;51.494;11.964;2023-12-20T05:10:24;9.23;;;5.93;;
13872;SDS011;7006;51.494;11.964;2023-12-20T05:12:53;7.10;;;4.77;;
13872;SDS011;7006;51.494;11.964;2023-12-20T05:15:24;7.27;;;5.20;;
13872;SDS011;7006;51.494;11.964;2023-12-20T05:17:52;7.43;;;5.07;;
13872;SDS011;7006;51.494;11.964;2023-12-20T05:20:20;7.17;;;4.97;;
13872;SDS011;7006;51.494;11.964;2023-12-20T05:22:49;6.77;;;5.30;;
13872;SDS011;7006;51.494;11.964;2023-12-20T05:25:17;8.90;;;6.00;;
13872;SDS011;7006;51.494;11.964;2023-12-20T05:27:45;7.00;;;5.40;;
13872;SDS011;7006;51.494;11.964;2023-12-20T05:30:14;6.90;;;4.83;;
13872;SDS011;7006;51.494;11.964;2023-12-20T05:32:45;6.90;;;4.83;;
13872;SDS011;7006;51.494;11.964;2023-12-20T05:35:13;7.60;;;4.80;;
13872;SDS011;7006;51.494;11.964;2023-12-20T05:37:42;6.87;;;4.70;;
13872;SDS011;7006;51.494;11.964;2023-12-20T05:40:10;6.77;;;4.43;;
13872;SDS011;7006;51.494;11.964;2023-12-20T05:42:39;6.77;;;4.40;;
13872;SDS011;7006;51.494;11.964;2023-12-20T05:45:08;6.00;;;4.43;;
13872;SDS011;7006;51.494;11.964;2023-12-20T05:47:37;7.00;;;4.47;;
13872;SDS011;7006;51.494;11.964;2023-12-20T05:50:08;6.40;;;4.67;;
13872;SDS011;7006;51.494;11.964;2023-12-20T05:52:37;7.30;;;4.60;;
13872;SDS011;7006;51.494;11.964;2023-12-20T05:55:06;5.63;;;4.20;;
13872;SDS011;7006;51.494;11.964;2023-12-20T05:57:34;8.33;;;4.47;;
13872;SDS011;7006;51.494;11.964;2023-12-20T06:00:03;6.60;;;4.17;;
13872;SDS011;7006;51.494;11.964;2023-12-20T06:02:32;7.20;;;4.30;;
13872;SDS011;7006;51.494;11.964;2023-12-20T06:05:01;6.73;;;4.63;;
13872;SDS011;7006;51.494;11.964;2023-12-20T06:07:32;8.43;;;4.60;;
13872;SDS011;7006;51.494;11.964;2023-12-20T06:10:01;8.20;;;4.83;;
13872;SDS011;7006;51.494;11.964;2023-12-20T06:12:31;7.70;;;4.50;;
13872;SDS011;7006;51.494;11.964;2023-12-20T06:15:01;11.33;;;4.87;;
13872;SDS011;7006;51.494;11.964;2023-12-20T06:17:29;9.50;;;5.37;;
13872;SDS011;7006;51.494;11.964;2023-12-20T06:19:58;7.53;;;4.90;;
13872;SDS011;7006;51.494;11.964;2023-12-20T06:22:26;10.13;;;5.30;;
13872;SDS011;7006;51.494;11.964;2023-12-20T06:24:57;7.57;;;4.80;;
13872;SDS011;7006;51.494;11.964;2023-12-20T06:27:25;6.60;;;4.73;;
13872;SDS011;7006;51.494;11.964;2023-12-20T06:29:54;7.20;;;4.73;;
13872;SDS011;7006;51.494;11.964;2023-12-20T06:32:22;7.40;;;5.30;;
13872;SDS011;7006;51.494;11.964;2023-12-20T06:34:51;6.60;;;4.33;;
13872;SDS011;7006;51.494;11.964;2023-12-20T06:37:19;6.83;;;4.97;;
13872;SDS011;7006;51.494;11.964;2023-12-20T06:39:48;8.27;;;5.80;;
13872;SDS011;7006;51.494;11.964;2023-12-20T06:42:18;7.67;;;5.37;;
13872;SDS011;7006;51.494;11.964;2023-12-20T06:44:47;8.30;;;5.27;;
13872;SDS011;7006;51.494;11.964;2023-12-20T06:47:15;9.90;;;6.50;;
13872;SDS011;7006;51.494;11.964;2023-12-20T06:49:43;14.00;;;8.77;;
13872;SDS011;7006;51.494;11.964;2023-12-20T06:52:12;13.20;;;9.57;;
13872;SDS011;7006;51.494;11.964;2023-12-20T06:54:40;8.43;;;4.20;;
13872;SDS011;7006;51.494;11.964;2023-12-20T06:57:08;7.50;;;3.70;;
13872;SDS011;7006;51.494;11.964;2023-12-20T06:59:40;9.10;;;4.57;;
13872;SDS011;7006;51.494;11.964;2023-12-20T07:02:09;9.27;;;4.57;;
13872;SDS011;7006;51.494;11.964;2023-12-20T07:04:38;8.00;;;3.60;;
13872;SDS011;7006;51.494;11.964;2023-12-20T07:07:07;8.43;;;3.67;;
13872;SDS011;7006;51.494;11.964;2023-12-20T07:09:35;7.10;;;3.13;;
13872;SDS011;7006;51.494;11.964;2023-12-20T07:12:04;5.47;;;2.87;;
13872;SDS011;7006;51.494;11.964;2023-12-20T07:14:33;5.33;;;3.20;;
13872;SDS011;7006;51.494;11.964;2023-12-20T07:17:03;6.17;;;2.43;;
13872;SDS011;7006;51.494;11.964;2023-12-20T07:19:36;7.57;;;2.40;;
13872;SDS011;7006;51.494;11.964;2023-12-20T07:22:05;3.27;;;2.30;;
13872;SDS011;7006;51.494;11.964;2023-12-20T07:24:33;9.47;;;2.87;;
13872;SDS011;7006;51.494;11.964;2023-12-20T07:27:02;5.23;;;2.70;;
13872;SDS011;7006;51.494;11.964;2023-12-20T07:29:31;6.57;;;2.43;;
13872;SDS011;7006;51.494;11.964;2023-12-20T07:32:01;14.93;;;3.83;;
13872;SDS011;7006;51.494;11.964;2023-12-20T07:34:40;7.83;;;2.87;;
13872;SDS011;7006;51.494;11.964;2023-12-20T07:37:18;7.40;;;2.40;;
13872;SDS011;7006;51.494;11.964;2023-12-20T07:39:56;4.17;;;2.60;;
13872;SDS011;7006;51.494;11.964;2023-12-20T07:42:31;4.03;;;2.27;;
13872;SDS011;7006;51.494;11.964;2023-12-20T07:45:05;4.77;;;1.90;;
13872;SDS011;7006;51.494;11.964;2023-12-20T07:47:36;4.83;;;2.13;;
13872;SDS011;7006;51.494;11.964;2023-12-20T07:50:06;6.70;;;2.60;;
13872;SDS011;7006;51.494;11.964;2023-12-20T07:52:35;5.60;;;2.20;;
13872;SDS011;7006;51.494;11.964;2023-12-20T07:55:06;5.90;;;2.30;;
13872;SDS011;7006;51.494;11.964;2023-12-20T07:57:35;5.10;;;2.60;;
13872;SDS011;7006;51.494;11.964;2023-12-20T08:00:04;4.60;;;2.20;;
13872;SDS011;7006;51.494;11.964;2023-12-20T08:02:33;4.03;;;2.17;;
13872;SDS011;7006;51.494;11.964;2023-12-20T08:05:04;3.60;;;2.30;;
13872;SDS011;7006;51.494;11.964;2023-12-20T08:07:32;4.50;;;2.30;;
13872;SDS011;7006;51.494;11.964;2023-12-20T08:10:01;6.70;;;2.23;;
13872;SDS011;7006;51.494;11.964;2023-12-20T08:12:29;3.97;;;2.13;;
13872;SDS011;7006;51.494;11.964;2023-12-20T08:14:58;5.10;;;2.77;;
13872;SDS011;7006;51.494;11.964;2023-12-20T08:17:27;5.80;;;2.60;;
13872;SDS011;7006;51.494;11.964;2023-12-20T08:19:55;5.83;;;2.40;;
13872;SDS011;7006;51.494;11.964;2023-12-20T08:22:26;7.77;;;2.60;;
13872;SDS011;7006;51.494;11.964;2023-12-20T08:24:55;5.33;;;2.57;;
13872;SDS011;7006;51.494;11.964;2023-12-20T08:27:23;4.80;;;2.77;;
13872;SDS011;7006;51.494;11.964;2023-12-20T08:29:51;8.03;;;3.30;;
13872;SDS011;7006;51.494;11.964;2023-12-20T08:32:19;7.27;;;2.50;;
13872;SDS011;7006;51.494;11.964;2023-12-20T08:34:49;6.83;;;2.53;;
13872;SDS011;7006;51.494;11.964;2023-12-20T08:37:17;7.80;;;2.50;;
13872;SDS011;7006;51.494;11.964;2023-12-20T08:39:48;6.63;;;2.90;;
13872;SDS011;7006;51.494;11.964;2023-12-20T08:42:16;4.90;;;2.37;;
13872;SDS011;7006;51.494;11.964;2023-12-20T08:44:45;5.80;;;2.07;;
13872;SDS011;7006;51.494;11.964;2023-12-20T08:47:13;7.60;;;2.50;;
13872;SDS011;7006;51.494;11.964;2023-12-20T08:49:42;4.80;;;2.00;;
13872;SDS011;7006;51.494;11.964;2023-12-20T08:52:11;5.63;;;2.30;;
13872;SDS011;7006;51.494;11.964;2023-12-20T08:54:39;5.30;;;2.03;;
13872;SDS011;7006;51.494;11.964;2023-12-20T08:57:10;4.90;;;2.23;;
13872;SDS011;7006;51.494;11.964;2023-12-20T08:59:38;5.40;;;2.40;;
13872;SDS011;7006;51.494;11.964;2023-12-20T09:02:07;5.37;;;2.13;;
13872;SDS011;7006;51.494;11.964;2023-12-20T09:04:35;7.50;;;2.50;;
13872;SDS011;7006;51.494;11.964;2023-12-20T09:07:04;5.70;;;1.77;;
13872;SDS011;7006;51.494;11.964;2023-12-20T09:09:32;6.53;;;2.10;;
13872;SDS011;7006;51.494;11.964;2023-12-20T09:12:02;8.33;;;3.20;;
13872;SDS011;7006;51.494;11.964;2023-12-20T09:14:33;9.50;;;3.23;;
13872;SDS011;7006;51.494;11.964;2023-12-20T09:17:02;5.23;;;2.60;;
13872;SDS011;7006;51.494;11.964;2023-12-20T09:19:31;5.43;;;2.57;;
13872;SDS011;7006;51.494;11.964;2023-12-20T09:22:00;6.67;;;3.27;;
13872;SDS011;7006;51.494;11.964;2023-12-20T09:24:30;7.03;;;2.70;;
13872;SDS011;7006;51.494;11.964;2023-12-20T09:26:58;4.60;;;2.43;;
13872;SDS011;7006;51.494;11.964;2023-12-20T09:29:27;2.97;;;2.27;;
13872;SDS011;7006;51.494;11.964;2023-12-20T09:31:59;5.10;;;2.60;;
13872;SDS011;7006;51.494;11.964;2023-12-20T09:34:27;4.33;;;2.70;;
13872;SDS011;7006;51.494;11.964;2023-12-20T09:36:56;5.20;;;2.90;;
13872;SDS011;7006;51.494;11.964;2023-12-20T09:39:24;4.60;;;2.67;;
13872;SDS011;7006;51.494;11.964;2023-12-20T09:41:57;4.97;;;3.27;;
13872;SDS011;7006;51.494;11.964;2023-12-20T09:44:28;6.47;;;2.30;;
13872;SDS011;7006;51.494;11.964;2023-12-20T09:47:01;4.60;;;2.97;;
13872;SDS011;7006;51.494;11.964;2023-12-20T09:49:30;4.90;;;2.90;;
13872;SDS011;7006;51.494;11.964;2023-12-20T09:51:59;7.40;;;3.70;;
13872;SDS011;7006;51.494;11.964;2023-12-20T09:54:28;10.30;;;4.70;;
13872;SDS011;7006;51.494;11.964;2023-12-20T09:56:58;9.47;;;3.20;;
13872;SDS011;7006;51.494;11.964;2023-12-20T09:59:27;5.83;;;3.27;;
13872;SDS011;7006;51.494;11.964;2023-12-20T10:01:55;5.53;;;3.50;;
13872;SDS011;7006;51.494;11.964;2023-12-20T10:04:27;7.90;;;3.87;;
13872;SDS011;7006;51.494;11.964;2023-12-20T10:06:55;10.23;;;2.80;;
13872;SDS011;7006;51.494;11.964;2023-12-20T10:09:26;5.70;;;3.93;;
13872;SDS011;7006;51.494;11.964;2023-12-20T10:11:55;6.50;;;3.20;;
13872;SDS011;7006;51.494;11.964;2023-12-20T10:14:25;6.30;;;3.47;;
13872;SDS011;7006;51.494;11.964;2023-12-20T10:16:53;5.67;;;3.43;;
13872;SDS011;7006;51.494;11.964;2023-12-20T10:19:21;8.63;;;3.50;;
13872;SDS011;7006;51.494;11.964;2023-12-20T10:21:52;9.93;;;3.80;;
13872;SDS011;7006;51.494;11.964;2023-12-20T10:24:20;8.37;;;3.50;;
13872;SDS011;7006;51.494;11.964;2023-12-20T10:26:51;6.43;;;3.70;;
13872;SDS011;7006;51.494;11.964;2023-12-20T10:29:31;5.87;;;3.30;;
13872;SDS011;7006;51.494;11.964;2023-12-20T10:32:00;11.33;;;3.53;;
13872;SDS011;7006;51.494;11.964;2023-12-20T10:34:49;5.47;;;3.60;;
13872;SDS011;7006;51.494;11.964;2023-12-20T10:37:20;9.43;;;3.80;;
13872;SDS011;7006;51.494;11.964;2023-12-20T10:39:49;6.10;;;3.93;;
13872;SDS011;7006;51.494;11.964;2023-12-20T10:42:21;5.93;;;3.03;;
13872;SDS011;7006;51.494;11.964;2023-12-20T10:44:50;8.57;;;3.73;;
13872;SDS011;7006;51.494;11.964;2023-12-20T10:47:19;6.03;;;3.70;;
13872;SDS011;7006;51.494;11.964;2023-12-20T10:49:47;8.50;;;3.50;;
13872;SDS011;7006;51.494;11.964;2023-12-20T10:52:16;6.40;;;3.50;;
13872;SDS011;7006;51.494;11.964;2023-12-20T10:54:48;9.17;;;3.27;;
13872;SDS011;7006;51.494;11.964;2023-12-20T10:57:16;6.23;;;3.20;;
13872;SDS011;7006;51.494;11.964;2023-12-20T10:59:46;6.93;;;3.63;;
13872;SDS011;7006;51.494;11.964;2023-12-20T11:02:17;7.53;;;3.00;;
13872;SDS011;7006;51.494;11.964;2023-12-20T11:04:47;9.93;;;3.97;;
13872;SDS011;7006;51.494;11.964;2023-12-20T11:07:21;4.93;;;3.43;;
13872;SDS011;7006;51.494;11.964;2023-12-20T11:09:57;5.70;;;2.80;;
13872;SDS011;7006;51.494;11.964;2023-12-20T11:12:31;5.57;;;3.07;;
13872;SDS011;7006;51.494;11.964;2023-12-20T11:15:04;7.83;;;2.60;;
13872;SDS011;7006;51.494;11.964;2023-12-20T11:17:34;5.80;;;2.97;;
13872;SDS011;7006;51.494;11.964;2023-12-20T11:20:06;6.27;;;2.83;;
13872;SDS011;7006;51.494;11.964;2023-12-20T11:22:35;6.17;;;3.30;;
13872;SDS011;7006;51.494;11.964;2023-12-20T11:25:10;6.13;;;3.00;;
13872;SDS011;7006;51.494;11.964;2023-12-20T11:27:40;9.00;;;3.40;;
13872;SDS011;7006;51.494;11.964;2023-12-20T11:30:10;4.70;;;2.50;;
13872;SDS011;7006;51.494;11.964;2023-12-20T11:32:43;4.33;;;2.47;;
13872;SDS011;7006;51.494;11.964;2023-12-20T11:35:17;5.70;;;2.90;;
13872;SDS011;7006;51.494;11.964;2023-12-20T11:37:48;9.07;;;2.90;;
13872;SDS011;7006;51.494;11.964;2023-12-20T11:40:19;4.60;;;2.30;;
13872;SDS011;7006;51.494;11.964;2023-12-20T11:42:48;3.90;;;2.43;;
13872;SDS011;7006;51.494;11.964;2023-12-20T11:45:18;4.17;;;2.37;;
13872;SDS011;7006;51.494;11.964;2023-12-20T11:47:48;5.87;;;3.00;;
13872;SDS011;7006;51.494;11.964;2023-12-20T11:50:19;6.67;;;3.07;;
13872;SDS011;7006;51.494;11.964;2023-12-20T11:52:48;9.20;;;3.30;;
13872;SDS011;7006;51.494;11.964;2023-12-20T11:55:20;6.30;;;2.73;;
13872;SDS011;7006;51.494;11.964;2023-12-20T11:57:49;3.90;;;2.60;;
13872;SDS011;7006;51.494;11.964;2023-12-20T12:00:18;7.10;;;3.00;;
13872;SDS011;7006;51.494;11.964;2023-12-20T12:02:56;7.00;;;2.93;;
13872;SDS011;7006;51.494;11.964;2023-12-20T12:05:27;6.07;;;2.80;;
13872;SDS011;7006;51.494;11.964;2023-12-20T12:07:55;4.90;;;2.80;;
13872;SDS011;7006;51.494;11.964;2023-12-20T12:10:26;5.23;;;2.80;;
13872;SDS011;7006;51.494;11.964;2023-12-20T12:12:54;6.43;;;2.20;;
13872;SDS011;7006;51.494;11.964;2023-12-20T12:15:23;3.70;;;2.60;;
13872;SDS011;7006;51.494;11.964;2023-12-20T12:17:54;9.30;;;3.20;;
13872;SDS011;7006;51.494;11.964;2023-12-20T12:20:24;3.70;;;2.33;;
13872;SDS011;7006;51.494;11.964;2023-12-20T12:22:59;4.20;;;1.97;;
13872;SDS011;7006;51.494;11.964;2023-12-20T12:25:31;6.33;;;2.87;;
13872;SDS011;7006;51.494;11.964;2023-12-20T12:28:01;6.17;;;3.27;;
13872;SDS011;7006;51.494;11.964;2023-12-20T12:30:29;5.33;;;3.00;;
13872;SDS011;7006;51.494;11.964;2023-12-20T12:32:58;6.33;;;3.33;;
13872;SDS011;7006;51.494;11.964;2023-12-20T12:35:26;4.63;;;3.07;;
13872;SDS011;7006;51.494;11.964;2023-12-20T12:37:55;4.00;;;2.80;;
13872;SDS011;7006;51.494;11.964;2023-12-20T12:40:23;7.90;;;3.07;;
13872;SDS011;7006;51.494;11.964;2023-12-20T12:42:54;5.00;;;2.60;;
13872;SDS011;7006;51.494;11.964;2023-12-20T12:45:22;4.17;;;2.60;;
13872;SDS011;7006;51.494;11.964;2023-12-20T12:47:52;5.27;;;2.50;;
13872;SDS011;7006;51.494;11.964;2023-12-20T12:50:20;4.80;;;2.57;;
13872;SDS011;7006;51.494;11.964;2023-12-20T12:52:49;3.90;;;2.40;;
13872;SDS011;7006;51.494;11.964;2023-12-20T12:55:17;6.00;;;2.90;;
13872;SDS011;7006;51.494;11.964;2023-12-20T12:57:45;4.20;;;2.30;;
13872;SDS011;7006;51.494;11.964;2023-12-20T13:00:16;3.47;;;2.40;;
13872;SDS011;7006;51.494;11.964;2023-12-20T13:02:45;4.47;;;2.80;;
13872;SDS011;7006;51.494;11.964;2023-12-20T13:05:13;4.70;;;3.37;;
13872;SDS011;7006;51.494;11.964;2023-12-20T13:07:43;8.07;;;2.47;;
13872;SDS011;7006;51.494;11.964;2023-12-20T13:10:13;6.30;;;3.17;;
13872;SDS011;7006;51.494;11.964;2023-12-20T13:12:41;5.90;;;3.63;;
13872;SDS011;7006;51.494;11.964;2023-12-20T13:15:10;10.50;;;3.43;;
13872;SDS011;7006;51.494;11.964;2023-12-20T13:17:41;5.10;;;2.70;;
13872;SDS011;7006;51.494;11.964;2023-12-20T13:20:11;4.37;;;2.47;;
13872;SDS011;7006;51.494;11.964;2023-12-20T13:22:39;11.80;;;3.23;;
13872;SDS011;7006;51.494;11.964;2023-12-20T13:25:08;5.87;;;2.10;;
13872;SDS011;7006;51.494;11.964;2023-12-20T13:27:36;4.50;;;2.37;;
13872;SDS011;7006;51.494;11.964;2023-12-20T13:30:05;4.27;;;2.47;;
13872;SDS011;7006;51.494;11.964;2023-12-20T13:32:34;5.90;;;2.80;;
13872;SDS011;7006;51.494;11.964;2023-12-20T13:35:05;7.13;;;3.60;;
13872;SDS011;7006;51.494;11.964;2023-12-20T13:37:34;5.67;;;2.67;;
13872;SDS011;7006;51.494;11.964;2023-12-20T13:40:03;4.77;;;3.60;;
13872;SDS011;7006;51.494;11.964;2023-12-20T13:42:33;5.50;;;2.67;;
13872;SDS011;7006;51.494;11.964;2023-12-20T13:45:01;5.20;;;3.00;;
13872;SDS011;7006;51.494;11.964;2023-12-20T13:47:30;5.57;;;3.03;;
13872;SDS011;7006;51.494;11.964;2023-12-20T13:49:58;6.70;;;2.23;;
13872;SDS011;7006;51.494;11.964;2023-12-20T13:52:29;3.80;;;2.27;;
13872;SDS011;7006;51.494;11.964;2023-12-20T13:54:57;8.47;;;3.33;;
13872;SDS011;7006;51.494;11.964;2023-12-20T13:57:26;5.53;;;2.70;;
13872;SDS011;7006;51.494;11.964;2023-12-20T13:59:54;4.17;;;2.70;;
13872;SDS011;7006;51.494;11.964;2023-12-20T14:02:23;5.87;;;2.63;;
13872;SDS011;7006;51.494;11.964;2023-12-20T14:04:52;4.90;;;2.17;;
13872;SDS011;7006;51.494;11.964;2023-12-20T14:07:20;5.40;;;2.40;;
13872;SDS011;7006;51.494;11.964;2023-12-20T14:09:51;7.90;;;2.70;;
13872;SDS011;7006;51.494;11.964;2023-12-20T14:12:20;3.37;;;2.30;;
13872;SDS011;7006;51.494;11.964;2023-12-20T14:14:49;4.87;;;3.30;;
13872;SDS011;7006;51.494;11.964;2023-12-20T14:17:17;4.63;;;2.00;;
13872;SDS011;7006;51.494;11.964;2023-12-20T14:19:45;5.50;;;2.40;;
13872;SDS011;7006;51.494;11.964;2023-12-20T14:22:13;4.53;;;2.60;;
13872;SDS011;7006;51.494;11.964;2023-12-20T14:24:42;5.50;;;2.63;;
13872;SDS011;7006;51.494;11.964;2023-12-20T14:27:13;3.20;;;1.70;;
13872;SDS011;7006;51.494;11.964;2023-12-20T14:29:41;6.30;;;2.40;;
13872;SDS011;7006;51.494;11.964;2023-12-20T14:32:10;5.97;;;2.60;;
13872;SDS011;7006;51.494;11.964;2023-12-20T14:34:40;5.90;;;2.60;;
13872;SDS011;7006;51.494;11.964;2023-12-20T14:37:08;4.60;;;2.57;;
13872;SDS011;7006;51.494;11.964;2023-12-20T14:39:38;4.50;;;3.10;;
13872;SDS011;7006;51.494;11.964;2023-12-20T14:42:07;6.37;;;3.20;;
13872;SDS011;7006;51.494;11.964;2023-12-20T14:44:40;4.97;;;2.70;;
13872;SDS011;7006;51.494;11.964;2023-12-20T14:47:09;6.13;;;2.70;;
13872;SDS011;7006;51.494;11.964;2023-12-20T14:49:39;4.27;;;2.80;;
13872;SDS011;7006;51.494;11.964;2023-12-20T14:52:07;4.27;;;2.70;;
13872;SDS011;7006;51.494;11.964;2023-12-20T14:54:36;8.00;;;3.30;;
13872;SDS011;7006;51.494;11.964;2023-12-20T14:57:07;3.40;;;2.20;;